Time;durP1;ratioP1;P1;durP2;ratioP2;P2;SDS_P1;SDS_P2;PMS_P1;PMS_P2;Temp;Humidity;BMP_temperature;BMP_pressure;BME280_temperature;BME280_humidity;BME280_pressure;Samples;Min_cycle;Max_cycle;Signal;HPM_P1;HPM_P2
2022/05/20 00:00:39;;;;;;;3.25;1.60;;;;;;;18.85;38.22;99305.09;5157684;27;20054;-64
2022/05/20 00:03:06;;;;;;;3.50;1.65;;;;;;;18.83;38.21;99301.78;5157972;27;20023;-64
2022/05/20 00:05:31;;;;;;;4.07;1.48;;;;;;;18.81;38.00;99304.66;5148229;27;20069;-64
2022/05/20 00:07:57;;;;;;;4.93;1.50;;;;;;;18.82;38.18;99300.13;5157374;27;20058;-64
2022/05/20 00:10:24;;;;;;;2.28;1.40;;;;;;;18.81;38.13;99309.19;5157759;27;20027;-65
2022/05/20 00:12:50;;;;;;;3.75;1.63;;;;;;;18.79;37.96;99303.97;5157289;27;20078;-65
2022/05/20 00:15:18;;;;;;;3.25;1.73;;;;;;;18.76;37.92;99296.28;5156858;27;20054;-65
2022/05/20 00:17:44;;;;;;;2.60;1.38;;;;;;;18.78;38.03;99304.19;5157250;27;20030;-64
2022/05/20 00:20:14;;;;;;;2.30;1.50;;;;;;;18.77;37.99;99303.31;5157739;27;20030;-64
2022/05/20 00:22:40;;;;;;;3.05;1.45;;;;;;;18.75;38.08;99308.88;5157494;27;20034;-65
2022/05/20 00:27:51;;;;;;;2.85;1.35;;;;;;;18.71;38.01;99315.59;5157620;27;20038;-65
2022/05/20 00:30:17;;;;;;;2.75;1.40;;;;;;;18.71;37.97;99307.56;5157368;27;20031;-65
2022/05/20 00:32:43;;;;;;;1.35;0.98;;;;;;;18.72;37.86;99314.59;5156970;27;20030;-65
2022/05/20 00:35:09;;;;;;;3.80;1.67;;;;;;;18.69;37.94;99320.31;5156365;27;20485;-65
2022/05/20 00:37:35;;;;;;;2.30;1.30;;;;;;;18.68;38.00;99320.50;5155566;27;20035;-64
2022/05/20 00:40:01;;;;;;;2.70;1.42;;;;;;;18.68;37.96;99323.19;5155709;27;20029;-65
2022/05/20 00:42:27;;;;;;;2.75;1.55;;;;;;;18.66;37.93;99327.88;5156862;27;20386;-65
2022/05/20 00:44:53;;;;;;;5.20;1.67;;;;;;;18.67;37.72;99329.53;5156042;27;20086;-65
2022/05/20 00:47:18;;;;;;;2.78;1.50;;;;;;;18.66;37.76;99333.22;5155450;27;20477;-65
2022/05/20 00:49:49;;;;;;;2.08;1.25;;;;;;;18.65;37.77;99328.88;5156921;27;20079;-64
2022/05/20 00:52:17;;;;;;;;;;;;;;;18.61;38.14;99339.13;5157897;27;20054;-64
2022/05/20 00:54:48;;;;;;;1.83;1.20;;;;;;;18.59;37.68;99336.66;5155857;27;19933;-64
2022/05/20 00:57:42;;;;;;;6.40;1.40;;;;;;;18.59;37.59;99346.50;5156741;27;20071;-65
2022/05/20 01:00:12;;;;;;;2.53;1.10;;;;;;;18.59;37.50;99350.03;5153814;27;20034;-65
2022/05/20 01:02:39;;;;;;;2.40;1.33;;;;;;;18.60;37.45;99358.91;5156107;27;20030;-65
2022/05/20 01:05:15;;;;;;;3.65;1.00;;;;;;;18.59;37.38;99355.41;5155535;27;20034;-64
2022/05/20 01:07:41;;;;;;;1.80;1.17;;;;;;;18.58;37.20;99355.56;5137584;27;20043;-65
2022/05/20 01:10:07;;;;;;;2.53;1.35;;;;;;;18.58;37.25;99359.09;5156192;27;20035;-65
2022/05/20 01:12:33;;;;;;;2.38;1.40;;;;;;;18.59;37.14;99366.13;5156260;27;20031;-65
2022/05/20 01:14:59;;;;;;;4.60;1.30;;;;;;;18.58;36.89;99377.84;5155625;27;20567;-65
2022/05/20 01:17:25;;;;;;;3.33;1.42;;;;;;;18.57;36.92;99373.50;5156469;27;20525;-64
2022/05/20 01:19:55;;;;;;;2.88;1.20;;;;;;;18.57;36.70;99375.31;5155063;27;20035;-65
2022/05/20 01:22:45;;;;;;;1.05;0.70;;;;;;;18.56;36.67;99377.19;5155979;27;20030;-65
2022/05/20 01:25:11;;;;;;;2.22;0.85;;;;;;;18.54;36.82;99381.03;5153009;27;20035;-65
2022/05/20 01:27:37;;;;;;;2.97;1.13;;;;;;;18.55;36.74;99391.59;5135257;27;20512;-65
2022/05/20 01:30:06;;;;;;;3.20;1.40;;;;;;;18.54;36.55;99384.56;5147062;27;20037;-64
2022/05/20 01:32:31;;;;;;;2.00;1.00;;;;;;;18.54;36.49;99395.28;5155106;27;20034;-64
2022/05/20 01:34:58;;;;;;;1.58;1.00;;;;;;;18.53;36.34;99398.97;5154858;27;20038;-65
2022/05/20 01:37:23;;;;;;;2.78;1.23;;;;;;;18.52;36.57;99399.16;5171239;27;20125;-65
2022/05/20 01:39:48;;;;;;;1.55;0.82;;;;;;;18.53;36.29;99398.16;5176511;27;20109;-65
2022/05/20 01:42:28;;;;;;;3.75;1.35;;;;;;;18.53;36.29;99390.13;5161448;27;20034;-65
2022/05/20 01:45:29;;;;;;;3.25;1.00;;;;;;;18.50;36.06;99402.00;5155306;27;20038;-65
2022/05/20 01:48:09;;;;;;;1.90;0.90;;;;;;;18.49;36.18;99396.81;5133828;27;20103;-65
2022/05/20 01:50:43;;;;;;;1.75;1.02;;;;;;;18.48;35.96;99398.66;5154343;27;20055;-65
2022/05/20 01:53:17;;;;;;;2.50;1.20;;;;;;;18.49;35.93;99404.84;5155054;27;20046;-65
2022/05/20 01:55:54;;;;;;;1.38;0.88;;;;;;;18.49;35.94;99408.34;5155718;27;20040;-65
2022/05/20 01:58:30;;;;;;;1.77;0.88;;;;;;;18.47;35.85;99410.38;5155016;27;20058;-64
2022/05/20 02:01:01;;;;;;;3.85;1.25;;;;;;;18.48;36.01;99420.09;5155785;27;20386;-65
2022/05/20 02:03:40;;;;;;;1.63;0.88;;;;;;;18.47;35.94;99417.59;5154375;27;20042;-65
2022/05/20 02:06:15;;;;;;;1.63;0.70;;;;;;;18.47;35.75;99412.22;5155503;27;20030;-65
2022/05/20 02:08:57;;;;;;;1.45;1.00;;;;;;;18.48;35.79;99422.75;5154448;27;20066;-65
2022/05/20 02:11:37;;;;;;;1.48;0.85;;;;;;;18.48;35.79;99438.84;5155324;27;20172;-65
2022/05/20 02:14:29;;;;;;;1.83;0.77;;;;;;;18.46;35.68;99438.16;5153643;27;20026;-65
2022/05/20 02:17:06;;;;;;;0.75;0.55;;;;;;;18.46;35.54;99432.81;5123102;27;20081;-65
2022/05/20 02:19:38;;;;;;;1.83;0.90;;;;;;;18.45;35.33;99433.84;5147416;27;20099;-64
2022/05/20 02:22:11;;;;;;;4.57;1.00;;;;;;;18.46;35.59;99440.84;5154836;27;20038;-65
2022/05/20 02:24:39;;;;;;;1.20;0.80;;;;;;;18.47;35.52;99442.53;5154396;27;20049;-65
2022/05/20 02:27:10;;;;;;;1.48;0.80;;;;;;;18.47;35.39;99433.66;5154782;27;20053;-65
2022/05/20 02:29:38;;;;;;;;;;;;;;;18.43;35.76;99441.22;5154615;27;20203;-63
2022/05/20 02:32:04;;;;;;;1.63;0.85;;;;;;;18.45;35.51;99442.72;5155033;27;20005;-64
2022/05/20 02:34:29;;;;;;;0.98;0.88;;;;;;;18.50;35.30;99452.06;5153938;27;20591;-63
2022/05/20 02:36:55;;;;;;;1.15;0.70;;;;;;;18.52;35.19;99455.41;5154433;27;20038;-64
2022/05/20 02:39:21;;;;;;;3.70;1.20;;;;;;;18.53;35.13;99449.88;5154759;27;20425;-65
2022/05/20 02:41:48;;;;;;;1.20;0.77;;;;;;;18.57;35.07;99451.19;5154855;27;20038;-65
2022/05/20 02:44:14;;;;;;;1.40;0.70;;;;;;;18.59;34.78;99457.22;5153442;27;20061;-65
2022/05/20 02:46:42;;;;;;;1.13;0.75;;;;;;;18.63;34.66;99456.84;5154475;27;20064;-65
2022/05/20 02:49:08;;;;;;;2.13;0.63;;;;;;;18.67;34.42;99450.13;5154598;27;20157;-64
2022/05/20 02:51:34;;;;;;;1.05;0.40;;;;;;;18.66;34.45;99449.31;5154687;27;20136;-65
2022/05/20 02:53:59;;;;;;;1.23;0.80;;;;;;;18.67;34.25;99451.00;5153798;27;20042;-64
2022/05/20 02:56:26;;;;;;;0.98;0.60;;;;;;;18.68;34.36;99451.81;5154363;27;20503;-64
2022/05/20 03:04:30;;;;;;;1.00;0.50;;;;;;;18.70;34.39;99453.28;5144211;27;20442;-64
2022/05/20 03:06:56;;;;;;;1.17;0.70;;;;;;;18.72;34.56;99459.31;5133730;27;20035;-64
2022/05/20 03:09:24;;;;;;;0.90;0.50;;;;;;;18.84;34.50;99461.59;5144400;27;20034;-64
2022/05/20 03:11:50;;;;;;;0.63;0.40;;;;;;;18.96;34.30;99464.75;5154103;27;20035;-64
2022/05/20 03:14:18;;;;;;;2.17;0.85;;;;;;;19.16;34.36;99468.66;5154914;27;20039;-64
2022/05/20 03:16:44;;;;;;;1.55;0.70;;;;;;;19.36;33.81;99466.31;5153927;27;20133;-64
2022/05/20 03:19:10;;;;;;;1.42;0.90;;;;;;;19.59;33.28;99475.34;5153067;27;20545;-65
2022/05/20 03:21:37;;;;;;;1.25;0.60;;;;;;;19.83;32.80;99479.66;5153604;27;20293;-65
2022/05/20 03:24:06;;;;;;;1.38;0.70;;;;;;;19.99;32.68;99475.19;5153934;27;20039;-65
2022/05/20 03:26:32;;;;;;;1.30;0.60;;;;;;;20.04;32.61;99478.13;5154760;27;20027;-64
2022/05/20 03:28:59;;;;;;;2.60;0.50;;;;;;;20.06;32.43;99478.78;5153280;27;20058;-66
2022/05/20 03:31:25;;;;;;;1.83;0.50;;;;;;;20.04;32.38;99476.28;5153541;27;20062;-64
2022/05/20 03:33:51;;;;;;;1.27;0.60;;;;;;;20.08;32.33;99474.88;5152957;27;20382;-64
2022/05/20 03:36:16;;;;;;;1.98;0.60;;;;;;;20.16;32.06;99483.88;5147506;27;20091;-64
2022/05/20 03:38:42;;;;;;;1.02;0.50;;;;;;;20.20;31.82;99486.00;5137266;27;20082;-64
2022/05/20 03:41:07;;;;;;;2.47;0.60;;;;;;;20.27;31.78;99488.78;5154168;27;20049;-64
2022/05/20 03:43:33;;;;;;;1.55;0.47;;;;;;;20.31;31.89;99487.41;5153489;27;20084;-64
2022/05/20 03:45:59;;;;;;;1.67;0.85;;;;;;;20.33;32.20;99495.25;5154429;27;20045;-64
2022/05/20 03:48:24;;;;;;;4.05;0.80;;;;;;;20.31;32.08;99502.69;5153644;27;20030;-64
2022/05/20 03:50:50;;;;;;;2.58;0.80;;;;;;;20.27;32.15;99505.75;5153855;27;20035;-64
2022/05/20 03:53:16;;;;;;;4.63;0.70;;;;;;;20.28;31.93;99509.25;5153351;27;20054;-64
2022/05/20 03:55:42;;;;;;;1.13;0.50;;;;;;;20.28;31.73;99514.63;5152737;27;20042;-64
2022/05/20 03:58:07;;;;;;;1.10;0.70;;;;;;;20.30;31.58;99523.34;5153576;27;20026;-64
2022/05/20 04:01:56;;;;;;;0.82;0.50;;;;;;;20.32;31.61;99524.00;5153659;27;20486;-64
2022/05/20 04:03:19;;;;;;;1.00;0.57;;;;;;;20.30;31.53;99526.03;5153556;27;20045;-64
2022/05/20 04:05:45;;;;;;;0.63;0.47;;;;;;;20.27;31.46;99524.56;5153033;27;20027;-64
2022/05/20 04:08:10;;;;;;;1.27;0.47;;;;;;;20.26;31.59;99524.72;5153386;27;20030;-63
2022/05/20 04:10:36;;;;;;;1.13;0.95;;;;;;;20.21;31.45;99527.16;5153611;27;20512;-64
2022/05/20 04:13:02;;;;;;;0.70;0.50;;;;;;;20.16;30.95;99533.06;5154216;27;20455;-64
2022/05/20 04:15:27;;;;;;;1.23;0.57;;;;;;;20.11;31.12;99530.91;5138634;27;20138;-65
2022/05/20 04:17:53;;;;;;;1.08;0.88;;;;;;;20.06;31.09;99532.50;5147461;27;20039;-64
2022/05/20 04:20:18;;;;;;;0.43;0.40;;;;;;;20.02;31.44;99523.13;5155031;27;20034;-64
2022/05/20 04:22:45;;;;;;;1.30;0.60;;;;;;;20.05;31.54;99530.81;5157547;27;20473;-64
2022/05/20 04:25:11;;;;;;;1.67;0.70;;;;;;;20.08;31.50;99536.66;5153996;27;20084;-65
2022/05/20 04:27:38;;;;;;;2.25;0.63;;;;;;;20.19;30.91;99534.56;5136221;27;20489;-65
2022/05/20 04:30:06;;;;;;;0.75;0.50;;;;;;;20.25;30.86;99541.88;5131659;27;20065;-66
2022/05/20 04:32:31;;;;;;;1.23;0.60;;;;;;;20.39;30.70;99538.34;5156916;27;20030;-66
2022/05/20 04:34:57;;;;;;;1.00;0.57;;;;;;;20.49;30.50;99548.00;5156986;27;20041;-66
2022/05/20 04:37:23;;;;;;;1.63;0.75;;;;;;;20.67;30.63;99545.75;5172364;27;20026;-65
2022/05/20 04:39:49;;;;;;;3.05;0.63;;;;;;;20.92;30.43;99558.94;5159878;27;20027;-63
2022/05/20 04:47:44;;;;;;;1.73;1.05;;;;;;;21.69;29.16;99553.97;5157598;27;20068;-65
2022/05/20 04:50:11;;;;;;;1.60;0.82;;;;;;;21.90;28.84;99561.19;5156888;27;20062;-63
2022/05/20 04:52:37;;;;;;;2.13;0.70;;;;;;;22.06;28.56;99560.06;5156830;27;20038;-64
2022/05/20 04:55:04;;;;;;;1.23;0.82;;;;;;;22.17;28.25;99560.59;5156749;27;20049;-64
2022/05/20 04:57:44;;;;;;;2.30;1.00;;;;;;;22.23;28.23;99555.25;5157175;27;20049;-65
2022/05/20 05:00:11;;;;;;;1.35;0.75;;;;;;;22.34;28.29;99547.63;5152153;27;20105;-64
2022/05/20 05:02:38;;;;;;;2.78;0.80;;;;;;;22.43;28.48;99546.47;5156440;27;20034;-65
2022/05/20 05:05:06;;;;;;;1.77;1.00;;;;;;;22.51;28.50;99546.31;5156495;27;20038;-65
2022/05/20 05:07:32;;;;;;;1.25;0.77;;;;;;;22.56;28.38;99548.41;5156256;27;20113;-65
2022/05/20 05:09:59;;;;;;;1.23;0.60;;;;;;;22.60;28.61;99549.69;5155156;27;20094;-64
2022/05/20 05:12:24;;;;;;;1.63;0.90;;;;;;;22.62;28.42;99550.31;5156153;27;20034;-64
2022/05/20 05:14:52;;;;;;;1.45;0.63;;;;;;;22.67;28.34;99555.94;5149677;27;20128;-64
2022/05/20 05:20:12;;;;;;;4.63;0.70;;;;;;;22.63;28.11;99553.84;5151905;27;20037;-64
2022/05/20 05:22:38;;;;;;;1.88;1.13;;;;;;;22.51;27.95;99554.41;5156344;27;20542;-64
2022/05/20 05:25:04;;;;;;;2.17;0.98;;;;;;;22.39;28.11;99558.66;5154047;27;20069;-64
2022/05/20 05:27:30;;;;;;;1.83;0.80;;;;;;;22.35;27.95;99555.50;5155815;27;20054;-65
2022/05/20 05:29:55;;;;;;;0.95;0.47;;;;;;;22.34;27.97;99555.72;5155675;27;20038;-65
2022/05/20 05:32:20;;;;;;;3.75;0.80;;;;;;;22.33;27.78;99554.91;5155798;27;20083;-65
2022/05/20 05:34:46;;;;;;;2.78;0.55;;;;;;;22.36;27.73;99559.06;5153127;27;20549;-65
2022/05/20 05:37:12;;;;;;;1.30;0.70;;;;;;;22.35;27.81;99563.59;5160650;27;20030;-65
2022/05/20 05:39:38;;;;;;;1.73;0.60;;;;;;;22.37;27.83;99566.94;5155600;27;20037;-65
2022/05/20 05:42:04;;;;;;;1.38;0.40;;;;;;;22.37;27.42;99566.94;5154863;27;20026;-65
2022/05/20 05:44:30;;;;;;;1.38;0.45;;;;;;;22.36;27.20;99569.84;5155573;27;20030;-65
2022/05/20 05:46:55;;;;;;;1.27;0.60;;;;;;;22.34;26.89;99563.81;5155696;27;20174;-65
2022/05/20 05:49:22;;;;;;;0.73;0.40;;;;;;;22.34;26.61;99556.56;5155353;27;20035;-65
2022/05/20 05:51:48;;;;;;;0.63;0.43;;;;;;;22.34;26.68;99556.56;5154933;27;20501;-65
2022/05/20 05:54:13;;;;;;;0.70;0.50;;;;;;;22.35;27.05;99560.91;5155313;27;20133;-65
2022/05/20 05:56:39;;;;;;;0.70;0.70;;;;;;;22.34;27.11;99558.41;5155589;27;20034;-65
2022/05/20 05:59:05;;;;;;;1.17;0.55;;;;;;;22.33;27.47;99556.75;5154014;27;20042;-65
2022/05/20 06:01:30;;;;;;;0.65;0.57;;;;;;;22.32;26.86;99563.16;5152330;27;20111;-65
2022/05/20 06:03:56;;;;;;;1.17;0.70;;;;;;;22.31;26.99;99564.19;5150885;27;20508;-65
2022/05/20 06:06:21;;;;;;;2.35;0.77;;;;;;;22.28;27.04;99572.69;5134529;27;20114;-65
2022/05/20 06:08:47;;;;;;;2.38;0.55;;;;;;;22.24;27.22;99570.38;5137572;27;20489;-65
2022/05/20 06:11:13;;;;;;;1.25;0.47;;;;;;;22.21;27.27;99578.84;5136102;27;20111;-65
2022/05/20 06:13:39;;;;;;;1.45;0.60;;;;;;;22.15;27.84;99590.41;5154422;27;20038;-65
2022/05/20 06:16:05;;;;;;;0.65;0.55;;;;;;;22.10;27.64;99588.31;5154755;27;20053;-65
2022/05/20 06:18:30;;;;;;;1.70;1.10;;;;;;;22.05;28.26;99585.38;5154810;27;20034;-65
2022/05/20 06:20:56;;;;;;;0.60;0.40;;;;;;;22.01;28.26;99583.25;5154768;27;20386;-65
2022/05/20 06:23:21;;;;;;;2.00;0.60;;;;;;;21.94;28.07;99578.66;5154689;27;20034;-65
2022/05/20 06:25:47;;;;;;;0.88;0.50;;;;;;;21.90;28.17;99585.44;5155172;27;20455;-65
2022/05/20 06:28:15;;;;;;;1.15;0.57;;;;;;;21.85;28.09;99587.88;5154698;27;20437;-65
2022/05/20 06:30:42;;;;;;;3.25;0.85;;;;;;;21.79;28.26;99586.78;5155085;27;20039;-65
2022/05/20 06:33:08;;;;;;;3.97;0.45;;;;;;;21.76;28.02;99579.09;5154236;27;20034;-65
2022/05/20 06:41:03;;;;;;;1.25;0.63;;;;;;;21.63;27.98;99595.97;5134714;27;20135;-65
2022/05/20 06:43:29;;;;;;;0.45;0.40;;;;;;;21.59;28.12;99583.88;5142684;27;20034;-65
2022/05/20 06:45:58;;;;;;;0.47;0.47;;;;;;;21.56;28.09;99595.03;5154439;27;20034;-65
2022/05/20 06:48:42;;;;;;;1.42;1.02;;;;;;;21.52;28.15;99588.38;5152979;27;20769;-65
2022/05/20 06:51:08;;;;;;;0.95;0.57;;;;;;;21.47;27.85;99591.63;5154408;27;20030;-65
2022/05/20 06:53:34;;;;;;;0.43;0.40;;;;;;;21.44;28.21;99586.66;5154174;27;20079;-66
2022/05/20 06:56:00;;;;;;;0.85;0.50;;;;;;;21.41;28.45;99587.03;5154174;27;20143;-65
2022/05/20 06:58:25;;;;;;;0.95;0.50;;;;;;;21.38;28.48;99586.56;5153710;27;20069;-65
2022/05/20 07:00:51;;;;;;;1.00;0.60;;;;;;;21.34;28.11;99583.41;5154016;27;20083;-65
2022/05/20 07:03:19;;;;;;;2.33;0.50;;;;;;;21.32;28.09;99591.69;5153891;27;20038;-65
2022/05/20 07:05:46;;;;;;;2.08;0.60;;;;;;;21.30;28.47;99587.53;5153220;27;20026;-65
2022/05/20 07:08:11;;;;;;;3.00;0.60;;;;;;;21.27;28.51;99593.28;5153469;27;20031;-65
2022/05/20 07:10:37;;;;;;;2.55;0.68;;;;;;;21.26;28.01;99594.31;5154347;27;20038;-65
2022/05/20 07:13:02;;;;;;;0.95;0.60;;;;;;;21.24;27.81;99593.66;5154305;27;20064;-65
2022/05/20 07:15:28;;;;;;;1.70;0.60;;;;;;;21.20;28.01;99598.59;5137087;27;20093;-65
2022/05/20 07:17:53;;;;;;;0.95;0.57;;;;;;;21.17;27.73;99593.56;5133588;28;20035;-65
2022/05/20 07:20:19;;;;;;;2.47;0.60;;;;;;;21.16;27.53;99597.28;5151600;27;20039;-65
2022/05/20 07:22:44;;;;;;;1.52;0.65;;;;;;;21.15;27.86;99584.84;5154368;27;20030;-65
2022/05/20 07:25:10;;;;;;;1.33;0.60;;;;;;;21.12;27.92;99591.47;5150737;27;20466;-65
2022/05/20 07:27:35;;;;;;;1.20;0.80;;;;;;;21.11;28.41;99592.47;5153192;27;20038;-65
2022/05/20 07:30:01;;;;;;;1.20;0.73;;;;;;;21.09;28.35;99593.69;5153813;27;20101;-65
2022/05/20 07:32:27;;;;;;;0.98;0.60;;;;;;;21.08;28.13;99594.72;5153970;27;20069;-65
2022/05/20 07:34:52;;;;;;;1.02;0.63;;;;;;;21.06;27.78;99602.13;5149037;27;20117;-65
2022/05/20 07:37:18;;;;;;;1.55;0.63;;;;;;;21.03;27.37;99596.09;5153683;27;20038;-65
2022/05/20 07:39:43;;;;;;;1.80;0.70;;;;;;;21.00;27.45;99598.34;5153403;27;20027;-65
2022/05/20 07:42:09;;;;;;;0.90;0.73;;;;;;;20.98;27.14;99606.59;5154458;27;20035;-65
2022/05/20 07:44:36;;;;;;;2.65;0.57;;;;;;;20.96;27.04;99603.25;5153380;27;20065;-65
2022/05/20 07:47:03;;;;;;;2.25;0.75;;;;;;;20.97;27.22;99618.38;5154165;27;20121;-65
2022/05/20 07:49:28;;;;;;;1.23;0.60;;;;;;;20.97;27.39;99614.84;5156464;27;20477;-65
2022/05/20 07:51:57;;;;;;;0.80;0.65;;;;;;;20.94;27.72;99615.22;5157796;27;20052;-66
2022/05/20 07:54:26;;;;;;;1.55;0.70;;;;;;;20.95;28.62;99614.19;5157091;27;20038;-66
2022/05/20 07:57:03;;;;;;;1.13;0.82;;;;;;;20.95;27.71;99614.19;5157766;27;20037;-66
2022/05/20 07:59:37;;;;;;;0.60;0.60;;;;;;;20.90;27.94;99604.00;5157348;27;20031;-66
2022/05/20 08:02:03;;;;;;;1.17;0.70;;;;;;;20.89;27.48;99613.09;5157854;27;20037;-65
2022/05/20 08:04:55;;;;;;;1.50;0.80;;;;;;;20.88;27.28;99608.75;5156702;27;20031;-65
2022/05/20 08:07:41;;;;;;;2.95;0.77;;;;;;;20.86;26.85;99611.63;5157694;27;20038;-65
2022/05/20 08:10:21;;;;;;;2.35;1.00;;;;;;;20.83;27.01;99614.69;5157206;27;20412;-65
2022/05/20 08:12:47;;;;;;;1.13;0.80;;;;;;;20.81;27.32;99605.97;5136598;27;20041;-64
2022/05/20 08:15:15;;;;;;;0.95;0.80;;;;;;;20.82;27.20;99601.41;5144644;27;20402;-64
2022/05/20 08:17:41;;;;;;;1.17;0.88;;;;;;;20.79;27.21;99605.31;5155675;27;20049;-65
2022/05/20 08:20:10;;;;;;;2.08;0.90;;;;;;;20.80;27.27;99611.53;5157471;27;20041;-65
2022/05/20 08:22:37;;;;;;;1.45;0.95;;;;;;;20.80;27.62;99604.28;5157156;27;20046;-65
2022/05/20 08:25:04;;;;;;;1.00;0.75;;;;;;;20.80;27.21;99603.47;5156462;27;20527;-65
2022/05/20 08:27:30;;;;;;;2.63;1.00;;;;;;;20.80;27.79;99606.16;5157322;27;20534;-65
2022/05/20 08:29:57;;;;;;;1.30;0.75;;;;;;;20.79;27.92;99601.81;5139503;27;20118;-65
2022/05/20 08:32:23;;;;;;;1.45;0.80;;;;;;;20.79;27.54;99604.50;5136803;27;20035;-65
2022/05/20 08:34:50;;;;;;;1.85;1.00;;;;;;;20.77;27.32;99601.16;5157142;27;20041;-65
2022/05/20 08:37:17;;;;;;;2.97;0.80;;;;;;;20.74;27.00;99605.84;5171585;27;20114;-65
2022/05/20 08:39:43;;;;;;;1.00;0.80;;;;;;;20.73;27.06;99598.78;5161618;27;20034;-65
2022/05/20 08:42:22;;;;;;;1.00;0.70;;;;;;;20.71;27.01;99600.00;5156959;27;20090;-65
2022/05/20 08:44:47;;;;;;;1.55;0.60;;;;;;;20.68;26.99;99595.81;5156818;27;20167;-65
2022/05/20 08:47:21;;;;;;;1.38;0.73;;;;;;;20.67;26.82;99594.16;5156712;27;20019;-66
2022/05/20 08:49:49;;;;;;;1.55;0.70;;;;;;;20.65;26.96;99589.97;5156045;27;20565;-65
2022/05/20 08:52:14;;;;;;;1.38;0.82;;;;;;;20.62;27.04;99591.19;5156483;27;20237;-66
2022/05/20 08:54:43;;;;;;;2.15;0.90;;;;;;;20.63;26.77;99583.94;5156541;27;20159;-65
2022/05/20 08:57:33;;;;;;;2.47;0.80;;;;;;;20.60;26.86;99585.16;5157020;27;20163;-65
2022/05/20 09:00:00;;;;;;;2.53;1.10;;;;;;;20.56;26.95;99578.47;5146008;27;20066;-64
2022/05/20 09:02:26;;;;;;;2.20;1.70;;;;;;;20.56;26.77;99583.88;5150005;27;20106;-65
2022/05/20 09:04:51;;;;;;;3.90;2.45;;;;;;;20.54;26.56;99572.47;5153382;27;20110;-64
2022/05/20 09:07:20;;;;;;;8.45;5.45;;;;;;;20.54;26.61;99578.69;5154853;27;20058;-65
2022/05/20 09:09:50;;;;;;;18.40;11.40;;;;;;;20.52;26.69;99578.03;5153636;27;20015;-64
2022/05/20 09:12:35;;;;;;;16.88;10.27;;;;;;;20.54;27.17;99583.22;5152494;27;20087;-65
2022/05/20 09:18:04;;;;;;;17.85;9.52;;;;;;;20.51;27.45;99572.84;5153371;27;20057;-65
2022/05/20 09:20:30;;;;;;;17.27;8.75;;;;;;;20.50;27.30;99576.56;5153802;27;20031;-64
2022/05/20 09:23:03;;;;;;;15.23;8.57;;;;;;;20.50;27.22;99568.50;5153092;27;20043;-64
2022/05/20 09:25:32;;;;;;;11.98;8.52;;;;;;;20.47;27.55;99569.69;5154537;27;20039;-64
2022/05/20 09:28:17;;;;;;;10.30;6.28;;;;;;;20.46;27.15;99570.69;5154924;27;20054;-65
2022/05/20 09:30:49;;;;;;;11.02;6.63;;;;;;;20.47;26.71;99571.53;5155553;27;20046;-65
2022/05/20 09:33:20;;;;;;;12.40;6.25;;;;;;;20.45;27.01;99554.75;5155728;27;20045;-65
2022/05/20 09:35:56;;;;;;;12.80;7.45;;;;;;;20.42;26.91;99551.44;5153880;27;20038;-65
2022/05/20 09:38:40;;;;;;;12.23;7.80;;;;;;;20.41;26.99;99560.50;5145593;27;20121;-65
2022/05/20 09:41:22;;;;;;;8.90;5.97;;;;;;;20.41;26.84;99557.81;5154446;27;20042;-65
2022/05/20 09:43:59;;;;;;;11.93;8.50;;;;;;;20.39;27.36;99557.16;5140034;27;20082;-66
2022/05/20 09:47:20;;;;;;;7.00;5.15;;;;;;;20.39;27.07;99564.41;5154667;27;20027;-65
2022/05/20 09:49:47;;;;;;;16.27;10.93;;;;;;;20.38;28.38;99570.78;5048677;28;20037;-64
2022/05/20 09:52:40;;;;;;;18.42;11.00;;;;;;;20.41;29.89;99568.56;5131054;27;20039;-65
2022/05/20 09:55:15;;;;;;;19.00;12.32;;;;;;;20.42;30.61;99566.72;5153870;27;20424;-64
2022/05/20 09:57:45;;;;;;;14.50;10.40;;;;;;;20.46;31.20;99559.94;5154612;27;20045;-64
2022/05/20 10:00:26;;;;;;;21.98;12.98;;;;;;;20.48;31.24;99562.47;5153164;27;20041;-65
2022/05/20 10:03:12;;;;;;;16.83;9.57;;;;;;;20.48;31.38;99563.28;5146950;27;20030;-63
2022/05/20 10:05:37;;;;;;;10.20;7.05;;;;;;;20.47;30.41;99558.09;5153473;27;20026;-65
2022/05/20 10:08:07;;;;;;;7.80;4.25;;;;;;;20.47;29.42;99566.16;5148628;27;20114;-65
2022/05/20 10:10:42;;;;;;;11.82;5.03;;;;;;;20.47;28.75;99555.41;5152832;27;20083;-63
2022/05/20 10:13:23;;;;;;;11.18;4.35;;;;;;;20.45;28.60;99557.44;5145953;27;20564;-64
2022/05/20 10:15:58;;;;;;;12.97;4.77;;;;;;;20.45;28.20;99549.38;5145516;27;20574;-64
2022/05/20 10:18:43;;;;;;;12.43;8.02;;;;;;;20.44;28.87;99551.22;5144638;27;20292;-64
2022/05/20 10:21:20;;;;;;;7.70;5.30;;;;;;;20.43;28.58;99547.72;5153934;27;20049;-64
2022/05/20 10:24:04;;;;;;;11.52;6.38;;;;;;;20.41;28.69;99538.19;5153897;27;20488;-64
2022/05/20 10:26:57;;;;;;;6.93;5.32;;;;;;;20.41;28.52;99530.13;5152470;27;20381;-64
2022/05/20 10:32:47;;;;;;;12.85;4.63;;;;;;;20.37;28.36;99532.31;5148283;27;20039;-64
2022/05/20 10:35:25;;;;;;;13.43;8.10;;;;;;;20.39;29.13;99530.28;5154393;27;20041;-65
2022/05/20 10:38:18;;;;;;;11.80;4.13;;;;;;;20.40;28.68;99534.66;5152636;27;20041;-66
2022/05/20 10:40:46;;;;;;;12.05;3.55;;;;;;;20.39;27.90;99530.28;5153329;27;20091;-65
2022/05/20 10:43:27;;;;;;;6.60;4.28;;;;;;;20.38;27.91;99520.56;5153198;27;20034;-66
2022/05/20 10:48:51;;;;;;;9.05;3.55;;;;;;;20.38;28.19;99531.31;5152021;27;20041;-66
2022/05/20 10:51:24;;;;;;;4.72;3.08;;;;;;;20.39;27.64;99530.28;5137505;27;20113;-63
2022/05/20 10:54:35;;;;;;;9.32;3.25;;;;;;;20.38;27.65;99536.69;5150163;27;20141;-66
2022/05/20 10:57:36;;;;;;;8.40;3.70;;;;;;;20.38;27.98;99523.25;5152719;27;20576;-63
2022/05/20 11:00:16;;;;;;;7.45;3.55;;;;;;;20.37;28.67;99521.56;5152708;27;20404;-64
2022/05/20 11:03:06;;;;;;;3.88;2.67;;;;;;;20.39;28.76;99518.72;5145888;27;20034;-63
2022/05/20 11:05:58;;;;;;;8.65;3.40;;;;;;;20.39;28.83;99514.16;5145329;27;20385;-63
2022/05/20 11:08:42;;;;;;;4.22;2.33;;;;;;;20.38;28.41;99517.88;5154465;27;20050;-63
2022/05/20 11:11:20;;;;;;;4.82;2.10;;;;;;;20.38;27.98;99514.38;5153830;27;20031;-63
2022/05/20 11:14:08;;;;;;;4.80;3.10;;;;;;;20.37;28.25;99510.00;5151586;27;20035;-63
2022/05/20 11:16:55;;;;;;;6.22;2.67;;;;;;;20.36;28.09;99506.50;5134616;27;20513;-64
2022/05/20 11:19:29;;;;;;;5.32;1.90;;;;;;;20.37;27.86;99510.00;5139259;27;20075;-63
2022/05/20 11:22:27;;;;;;;4.47;2.13;;;;;;;20.35;27.58;99498.59;5153882;27;20041;-64
2022/05/20 11:24:58;;;;;;;5.68;2.28;;;;;;;20.33;28.01;99504.19;5065735;27;20051;-64
2022/05/20 11:27:39;;;;;;;2.95;1.85;;;;;;;20.33;28.07;99504.19;5138230;27;20031;-64
2022/05/20 11:30:16;;;;;;;7.93;2.40;;;;;;;20.33;28.14;99500.63;5150587;27;20057;-64
2022/05/20 11:32:57;;;;;;;3.90;1.95;;;;;;;20.32;28.10;99499.81;5158181;27;20030;-64
2022/05/20 11:35:48;;;;;;;2.42;1.33;;;;;;;20.31;27.43;99502.69;5157281;27;20090;-63
2022/05/20 11:38:41;;;;;;;3.30;2.08;;;;;;;20.31;27.72;99494.59;5157723;27;20125;-64
2022/05/20 11:41:30;;;;;;;2.30;1.58;;;;;;;20.30;27.56;99493.78;5152430;27;20093;-64
2022/05/20 11:44:20;;;;;;;6.70;2.33;;;;;;;20.29;28.41;99492.13;5157439;27;20033;-63
2022/05/20 11:46:51;;;;;;;5.47;1.30;;;;;;;20.28;28.12;99490.44;5157795;27;20523;-63
2022/05/20 11:49:38;;;;;;;3.83;1.33;;;;;;;20.29;28.21;99484.06;5157858;27;20065;-63
2022/05/20 11:52:22;;;;;;;3.13;1.10;;;;;;;20.28;28.11;99480.56;5156715;27;20496;-63
2022/05/20 11:55:20;;;;;;;2.33;1.33;;;;;;;20.28;28.19;99472.50;5157464;27;20026;-63
2022/05/20 11:58:37;;;;;;;2.40;1.38;;;;;;;20.27;28.67;99476.19;5157960;27;20413;-63
2022/05/20 12:01:06;;;;;;;3.17;1.13;;;;;;;20.26;28.30;99473.69;5151224;27;20054;-63
2022/05/20 12:04:07;;;;;;;2.92;1.13;;;;;;;20.26;28.12;99468.31;5156730;27;20102;-63
2022/05/20 12:06:23;;;;;;;1.25;0.88;;;;;;;20.26;27.64;99460.25;5146785;27;20060;-63
2022/05/20 12:08:53;;;;;;;4.82;1.70;;;;;;;20.24;28.10;99460.44;5156529;27;20086;-63
2022/05/20 12:11:28;;;;;;;6.85;1.40;;;;;;;20.26;28.00;99462.94;5157295;27;20086;-63
2022/05/20 12:14:19;;;;;;;13.93;2.40;;;;;;;20.25;27.77;99459.44;5156898;27;20069;-63
2022/05/20 12:17:05;;;;;;;5.43;1.10;;;;;;;20.24;27.85;99457.75;5153180;27;20042;-63
2022/05/20 12:25:36;;;;;;;3.65;1.30;;;;;;;20.24;27.62;99448.84;5157690;27;20438;-64
2022/05/20 12:28:33;;;;;;;2.30;1.10;;;;;;;20.22;27.76;99448.22;5157152;27;20027;-64